»·PEaware :: N7733 KPOC-P20

N7733 :: KPOC-P20

FLIGHT INFORMATION

Flight Status: Arrived
Operator: Privately registered:
United States
More flights under this callsign
Pilot: Ivan L. (45284)
Aircraft: CIRRUS VISIONJET
(SF50)
More flights by this aircraft type
Origin: KPOC Brackett
United States
Destination: P20 Avi Suquilla
United States
More flights between these airports :: More routes between these airports
Route:
File this flight plan on PilotEdge
Remarks:
Altitude:
(Current/Filed)
13,500ft
Speed:
(Current/Filed)
280kts
Departed: 06-Nov-23 08:24 AM
Arrived: 06-Nov-23 09:12 AM
Distance/Time
Traveled:
174nm/0:48
Distance/Time
To Go:
Arrived

Flight Plot

Page will automatically refresh every two minutes.

Flight plan parsing failed; only flown route is shown


Map Options




Map Legend


Flown Route
Filed Route
Departure Airport
Arrival Airport
Navaid (VOR, NDB)
Fix

Horizontal Profiles

Position Reports

Time Latitude Longitude Heading Altitude Ground
Speed
06-Nov-23 08:15 34.089570 -117.777241 1 1001ft 0kts
06-Nov-23 08:16 34.089570 -117.777241 1 1001ft 0kts
06-Nov-23 08:17 34.089570 -117.777241 1 1001ft 0kts
06-Nov-23 08:18 34.089570 -117.777241 1 1001ft 0kts
06-Nov-23 08:19 34.089570 -117.777241 1 1001ft 0kts
06-Nov-23 08:20 34.089577 -117.777239 13 1001ft 1kts
06-Nov-23 08:21 34.090283 -117.775094 95 1005ft 8kts
06-Nov-23 08:22 34.090481 -117.774668 6 1006ft 0kts
06-Nov-23 08:23 34.091041 -117.776399 273 1004ft 53kts
06-Nov-23 08:24 34.092866 -117.819817 272 2413ft 153kts
06-Nov-23 08:25 34.094651 -117.875013 272 4168ft 174kts
06-Nov-23 08:26 34.139445 -117.887398 8 6258ft 208kts
06-Nov-23 08:27 34.189966 -117.844969 40 8610ft 231kts
06-Nov-23 08:28 34.197659 -117.771152 94 11083ft 232kts
06-Nov-23 08:29 34.197116 -117.694537 93 13553ft 224kts
06-Nov-23 08:30 34.197019 -117.605435 92 13864ft 302kts
06-Nov-23 08:31 34.196907 -117.499249 91 13868ft 326kts
06-Nov-23 08:33 34.196711 -117.388783 91 13911ft 328kts
06-Nov-23 08:34 34.196416 -117.280221 92 13885ft 319kts
06-Nov-23 08:35 34.196021 -117.173360 92 13913ft 316kts
06-Nov-23 08:36 34.195547 -117.068878 92 13938ft 298kts
06-Nov-23 08:37 34.195060 -116.972160 93 13961ft 280kts
06-Nov-23 08:38 34.194434 -116.878821 92 13900ft 286kts
06-Nov-23 08:39 34.193714 -116.775074 92 13895ft 322kts
06-Nov-23 08:40 34.192898 -116.665780 92 13914ft 328kts
06-Nov-23 08:41 34.191961 -116.556525 92 13974ft 323kts
06-Nov-23 08:42 34.190920 -116.448039 92 13865ft 322kts
06-Nov-23 08:43 34.189801 -116.339582 93 13847ft 322kts
06-Nov-23 08:44 34.181559 -116.233128 101 13853ft 313kts
06-Nov-23 08:45 34.168880 -116.130402 101 13847ft 307kts
06-Nov-23 08:46 34.156420 -116.029014 101 13865ft 304kts
06-Nov-23 08:47 34.144130 -115.928586 100 13876ft 303kts
06-Nov-23 08:48 34.137777 -115.826802 90 13928ft 305kts
06-Nov-23 08:49 34.139082 -115.724362 90 13937ft 305kts
06-Nov-23 08:50 34.140389 -115.622295 90 13950ft 305kts
06-Nov-23 08:51 34.141622 -115.519649 90 13952ft 306kts
06-Nov-23 08:52 34.142769 -115.417128 90 13983ft 305kts
06-Nov-23 08:53 34.143846 -115.314381 91 13981ft 306kts
06-Nov-23 08:54 34.144858 -115.209832 91 13234ft 308kts
06-Nov-23 08:55 34.145716 -115.109716 91 11690ft 290kts
06-Nov-23 08:56 34.146470 -115.014444 92 10381ft 279kts
06-Nov-23 08:57 34.147145 -114.921997 92 9149ft 273kts
06-Nov-23 08:58 34.147712 -114.832407 92 7968ft 263kts
06-Nov-23 08:59 34.148190 -114.744845 92 6811ft 259kts
06-Nov-23 09:00 34.148652 -114.660390 93 5989ft 226kts
06-Nov-23 09:00 34.148893 -114.598631 92 5113ft 207kts
06-Nov-23 09:01 34.149150 -114.528733 91 4120ft 213kts
06-Nov-23 09:03 34.149435 -114.445092 91 2956ft 208kts
06-Nov-23 09:04 34.149557 -114.384572 88 2297ft 156kts
06-Nov-23 09:04 34.149713 -114.343981 89 2015ft 145kts
06-Nov-23 09:05 34.149821 -114.292369 91 2006ft 147kts
06-Nov-23 09:07 34.135160 -114.240592 120 1950ft 121kts
06-Nov-23 09:08 34.115958 -114.241426 274 1586ft 105kts
06-Nov-23 09:08 34.131642 -114.259413 1 1478ft 88kts
06-Nov-23 09:09 34.155606 -114.245215 27 1515ft 118kts
06-Nov-23 09:10 34.167224 -114.256814 226 817ft 93kts
06-Nov-23 09:11 34.151368 -114.266892 207 457ft 15kts
06-Nov-23 09:13 34.153248 -114.270995 330 449ft 9kts

Navigation Log

Ident Type
Flight plan parsing failed, navigation log unavailable